sensor_id;sensor_type;location;lat;lon;timestamp;pressure;altitude;pressure_sealevel;temperature;humidity
55590;BME280;41452;42.780;23.116;2023-04-08T00:00:03;94420.25;;;3.01;99.44
55590;BME280;41452;42.780;23.116;2023-04-08T00:02:30;94409.97;;;2.93;99.37
55590;BME280;41452;42.780;23.116;2023-04-08T00:04:56;94345.72;;;2.58;99.31
55590;BME280;41452;42.780;23.116;2023-04-08T00:07:21;94421.31;;;3.07;99.08
55590;BME280;41452;42.780;23.116;2023-04-08T00:09:47;94371.75;;;2.65;98.96
55590;BME280;41452;42.780;23.116;2023-04-08T00:12:12;94412.28;;;2.88;99.07
55590;BME280;41452;42.780;23.116;2023-04-08T00:14:37;94423.94;;;2.92;99.38
55590;BME280;41452;42.780;23.116;2023-04-08T00:17:05;94418.31;;;2.88;99.23
55590;BME280;41452;42.780;23.116;2023-04-08T00:19:30;94424.22;;;2.97;99.40
55590;BME280;41452;42.780;23.116;2023-04-08T00:21:55;94426.84;;;3.03;99.16
55590;BME280;41452;42.780;23.116;2023-04-08T00:24:21;94420.69;;;3.04;99.14
55590;BME280;41452;42.780;23.116;2023-04-08T00:26:46;94418.81;;;2.98;99.21
55590;BME280;41452;42.780;23.116;2023-04-08T00:29:11;94409.97;;;2.93;99.04
55590;BME280;41452;42.780;23.116;2023-04-08T00:31:37;94421.97;;;2.94;99.04
55590;BME280;41452;42.780;23.116;2023-04-08T00:34:02;94390.69;;;2.65;99.72
55590;BME280;41452;42.780;23.116;2023-04-08T00:36:27;94419.91;;;2.89;98.41
55590;BME280;41452;42.780;23.116;2023-04-08T00:38:53;94389.19;;;2.56;98.92
55590;BME280;41452;42.780;23.116;2023-04-08T00:41:19;94413.81;;;2.82;98.23
55590;BME280;41452;42.780;23.116;2023-04-08T00:43:44;94408.28;;;2.85;97.78
55590;BME280;41452;42.780;23.116;2023-04-08T00:46:10;94419.72;;;2.91;97.71
55590;BME280;41452;42.780;23.116;2023-04-08T00:48:35;94418.94;;;2.90;98.22
55590;BME280;41452;42.780;23.116;2023-04-08T00:51:02;94391.94;;;2.70;97.81
55590;BME280;41452;42.780;23.116;2023-04-08T00:53:29;94417.47;;;2.88;97.81
55590;BME280;41452;42.780;23.116;2023-04-08T00:55:55;94411.69;;;2.85;97.25
55590;BME280;41452;42.780;23.116;2023-04-08T00:58:20;94394.53;;;2.70;97.54
55590;BME280;41452;42.780;23.116;2023-04-08T01:01:06;94419.28;;;2.87;97.66
55590;BME280;41452;42.780;23.116;2023-04-08T01:03:51;94411.06;;;2.83;97.53
55590;BME280;41452;42.780;23.116;2023-04-08T01:08:51;94420.72;;;2.60;98.67
55590;BME280;41452;42.780;23.116;2023-04-08T01:11:18;94412.50;;;2.56;99.26
55590;BME280;41452;42.780;23.116;2023-04-08T01:13:46;94420.44;;;2.70;99.52
55590;BME280;41452;42.780;23.116;2023-04-08T01:16:14;94413.06;;;2.66;99.43
55590;BME280;41452;42.780;23.116;2023-04-08T01:18:42;94416.09;;;2.70;99.25
55590;BME280;41452;42.780;23.116;2023-04-08T01:21:10;94372.09;;;2.32;99.57
55590;BME280;41452;42.780;23.116;2023-04-08T01:24:12;94421.81;;;2.65;99.50
55590;BME280;41452;42.780;23.116;2023-04-08T01:26:41;94422.25;;;2.54;99.83
55590;BME280;41452;42.780;23.116;2023-04-08T01:29:08;94423.16;;;2.61;99.57
55590;BME280;41452;42.780;23.116;2023-04-08T01:31:35;94372.72;;;2.19;99.48
55590;BME280;41452;42.780;23.116;2023-04-08T01:34:02;94423.84;;;2.55;99.77
55590;BME280;41452;42.780;23.116;2023-04-08T01:36:30;94419.22;;;2.51;99.25
55590;BME280;41452;42.780;23.116;2023-04-08T01:38:59;94431.00;;;2.53;99.79
55590;BME280;41452;42.780;23.116;2023-04-08T01:41:25;94426.88;;;2.59;100.00
55590;BME280;41452;42.780;23.116;2023-04-08T01:43:52;94427.50;;;2.61;99.67
55590;BME280;41452;42.780;23.116;2023-04-08T01:46:19;94430.56;;;2.64;99.45
55590;BME280;41452;42.780;23.116;2023-04-08T01:48:46;94387.03;;;2.30;99.22
55590;BME280;41452;42.780;23.116;2023-04-08T01:51:14;94439.69;;;2.60;99.48
55590;BME280;41452;42.780;23.116;2023-04-08T01:53:40;94417.66;;;2.41;99.60
55590;BME280;41452;42.780;23.116;2023-04-08T01:56:11;94444.78;;;2.54;99.97
55590;BME280;41452;42.780;23.116;2023-04-08T01:58:39;94445.31;;;2.49;100.00
55590;BME280;41452;42.780;23.116;2023-04-08T02:01:10;94451.75;;;2.53;100.00
55590;BME280;41452;42.780;23.116;2023-04-08T02:03:37;94453.88;;;2.50;100.00
55590;BME280;41452;42.780;23.116;2023-04-08T02:06:04;94461.16;;;2.54;100.00
55590;BME280;41452;42.780;23.116;2023-04-08T02:08:31;94465.16;;;2.57;100.00
55590;BME280;41452;42.780;23.116;2023-04-08T02:10:57;94456.59;;;2.56;100.00
55590;BME280;41452;42.780;23.116;2023-04-08T02:13:22;94458.19;;;2.57;100.00
55590;BME280;41452;42.780;23.116;2023-04-08T02:15:51;94438.69;;;2.32;100.00
55590;BME280;41452;42.780;23.116;2023-04-08T02:18:25;94465.78;;;2.44;100.00
55590;BME280;41452;42.780;23.116;2023-04-08T02:21:00;94467.75;;;2.42;100.00
55590;BME280;41452;42.780;23.116;2023-04-08T02:23:31;94449.72;;;2.25;100.00
55590;BME280;41452;42.780;23.116;2023-04-08T02:26:00;94468.09;;;2.39;100.00
55590;BME280;41452;42.780;23.116;2023-04-08T02:28:27;94461.13;;;2.39;100.00
55590;BME280;41452;42.780;23.116;2023-04-08T02:30:53;94429.78;;;2.11;100.00
55590;BME280;41452;42.780;23.116;2023-04-08T02:33:21;94460.84;;;2.34;100.00
55590;BME280;41452;42.780;23.116;2023-04-08T02:35:48;94463.53;;;2.41;100.00
55590;BME280;41452;42.780;23.116;2023-04-08T02:38:14;94465.16;;;2.42;100.00
55590;BME280;41452;42.780;23.116;2023-04-08T02:40:40;94456.38;;;2.43;100.00
55590;BME280;41452;42.780;23.116;2023-04-08T02:43:06;94458.44;;;2.47;100.00
55590;BME280;41452;42.780;23.116;2023-04-08T02:45:39;94451.66;;;2.46;100.00
55590;BME280;41452;42.780;23.116;2023-04-08T02:48:05;94424.72;;;2.33;100.00
55590;BME280;41452;42.780;23.116;2023-04-08T02:50:31;94446.28;;;2.48;100.00
55590;BME280;41452;42.780;23.116;2023-04-08T02:52:56;94450.56;;;2.56;100.00
55590;BME280;41452;42.780;23.116;2023-04-08T02:55:21;94451.41;;;2.56;100.00
55590;BME280;41452;42.780;23.116;2023-04-08T02:57:47;94454.44;;;2.60;100.00
55590;BME280;41452;42.780;23.116;2023-04-08T03:00:14;94446.66;;;2.60;100.00
55590;BME280;41452;42.780;23.116;2023-04-08T03:02:40;94419.75;;;2.46;100.00
55590;BME280;41452;42.780;23.116;2023-04-08T03:05:05;94442.91;;;2.62;100.00
55590;BME280;41452;42.780;23.116;2023-04-08T03:07:31;94448.34;;;2.67;100.00
55590;BME280;41452;42.780;23.116;2023-04-08T03:09:57;94443.34;;;2.66;100.00
55590;BME280;41452;42.780;23.116;2023-04-08T03:12:22;94447.56;;;2.67;100.00
55590;BME280;41452;42.780;23.116;2023-04-08T03:14:48;94387.81;;;2.31;100.00
55590;BME280;41452;42.780;23.116;2023-04-08T03:17:14;94415.63;;;2.52;100.00
55590;BME280;41452;42.780;23.116;2023-04-08T03:19:40;94444.41;;;2.72;100.00
55590;BME280;41452;42.780;23.116;2023-04-08T03:22:05;94444.78;;;2.69;100.00
55590;BME280;41452;42.780;23.116;2023-04-08T03:24:30;94436.75;;;2.63;100.00
55590;BME280;41452;42.780;23.116;2023-04-08T03:26:56;94448.19;;;2.69;100.00
55590;BME280;41452;42.780;23.116;2023-04-08T03:29:22;94447.09;;;2.63;100.00
55590;BME280;41452;42.780;23.116;2023-04-08T03:31:47;94451.13;;;2.66;100.00
55590;BME280;41452;42.780;23.116;2023-04-08T03:34:12;94445.50;;;2.47;100.00
55590;BME280;41452;42.780;23.116;2023-04-08T03:36:38;94450.94;;;2.53;100.00
55590;BME280;41452;42.780;23.116;2023-04-08T03:39:03;94437.53;;;2.49;100.00
55590;BME280;41452;42.780;23.116;2023-04-08T03:41:29;94414.72;;;2.30;100.00
55590;BME280;41452;42.780;23.116;2023-04-08T03:43:55;94449.69;;;2.48;100.00
55590;BME280;41452;42.780;23.116;2023-04-08T03:46:20;94458.63;;;2.46;100.00
55590;BME280;41452;42.780;23.116;2023-04-08T03:51:20;94448.44;;;2.59;100.00
55590;BME280;41452;42.780;23.116;2023-04-08T03:53:45;94457.84;;;2.60;100.00
55590;BME280;41452;42.780;23.116;2023-04-08T03:56:12;94467.31;;;2.53;100.00
55590;BME280;41452;42.780;23.116;2023-04-08T03:58:37;94458.19;;;2.57;100.00
55590;BME280;41452;42.780;23.116;2023-04-08T04:01:03;94454.97;;;2.55;100.00
55590;BME280;41452;42.780;23.116;2023-04-08T04:03:28;94461.84;;;2.48;100.00
55590;BME280;41452;42.780;23.116;2023-04-08T04:05:54;94459.69;;;2.52;100.00
55590;BME280;41452;42.780;23.116;2023-04-08T04:08:19;94451.56;;;2.55;100.00
55590;BME280;41452;42.780;23.116;2023-04-08T04:10:44;94457.84;;;2.60;100.00
55590;BME280;41452;42.780;23.116;2023-04-08T04:13:10;94463.47;;;2.64;100.00
55590;BME280;41452;42.780;23.116;2023-04-08T04:15:39;94460.69;;;2.65;100.00
55590;BME280;41452;42.780;23.116;2023-04-08T04:18:05;94468.66;;;2.64;100.00
55590;BME280;41452;42.780;23.116;2023-04-08T04:20:30;94465.00;;;2.58;100.00
55590;BME280;41452;42.780;23.116;2023-04-08T04:22:56;94470.53;;;2.55;100.00
55590;BME280;41452;42.780;23.116;2023-04-08T04:25:21;94445.50;;;2.47;100.00
55590;BME280;41452;42.780;23.116;2023-04-08T04:27:47;94469.66;;;2.63;100.00
55590;BME280;41452;42.780;23.116;2023-04-08T04:30:12;94471.06;;;2.65;100.00
55590;BME280;41452;42.780;23.116;2023-04-08T04:32:40;94470.44;;;2.63;100.00
55590;BME280;41452;42.780;23.116;2023-04-08T04:35:08;94481.78;;;2.62;100.00
55590;BME280;41452;42.780;23.116;2023-04-08T04:37:33;94470.63;;;2.62;100.00
55590;BME280;41452;42.780;23.116;2023-04-08T04:39:58;94478.56;;;2.60;100.00
55590;BME280;41452;42.780;23.116;2023-04-08T04:42:24;94444.03;;;2.45;100.00
55590;BME280;41452;42.780;23.116;2023-04-08T04:44:50;94467.06;;;2.63;100.00
55590;BME280;41452;42.780;23.116;2023-04-08T04:47:15;94475.00;;;2.61;100.00
55590;BME280;41452;42.780;23.116;2023-04-08T04:49:41;94475.47;;;2.65;100.00
55590;BME280;41452;42.780;23.116;2023-04-08T04:52:06;94433.22;;;2.41;100.00
55590;BME280;41452;42.780;23.116;2023-04-08T04:54:31;94467.41;;;2.75;100.00
55590;BME280;41452;42.780;23.116;2023-04-08T04:56:57;94441.47;;;2.60;100.00
55590;BME280;41452;42.780;23.116;2023-04-08T04:59:22;94475.47;;;2.80;100.00
55590;BME280;41452;42.780;23.116;2023-04-08T05:01:47;94474.28;;;2.82;100.00
55590;BME280;41452;42.780;23.116;2023-04-08T05:04:13;94478.94;;;2.87;100.00
55590;BME280;41452;42.780;23.116;2023-04-08T05:06:38;94469.56;;;2.86;100.00
55590;BME280;41452;42.780;23.116;2023-04-08T05:09:04;94479.56;;;2.89;100.00
55590;BME280;41452;42.780;23.116;2023-04-08T05:11:29;94476.00;;;2.90;100.00
55590;BME280;41452;42.780;23.116;2023-04-08T05:13:54;94473.50;;;2.97;100.00
55590;BME280;41452;42.780;23.116;2023-04-08T05:16:20;94470.91;;;2.97;100.00
55590;BME280;41452;42.780;23.116;2023-04-08T05:18:45;94482.34;;;3.02;100.00
55590;BME280;41452;42.780;23.116;2023-04-08T05:21:11;94463.56;;;3.00;100.00
55590;BME280;41452;42.780;23.116;2023-04-08T05:23:36;94471.84;;;3.11;100.00
55590;BME280;41452;42.780;23.116;2023-04-08T05:26:01;94482.94;;;3.19;100.00
55590;BME280;41452;42.780;23.116;2023-04-08T05:28:27;94450.38;;;3.02;100.00
55590;BME280;41452;42.780;23.116;2023-04-08T05:30:52;94482.41;;;3.24;100.00
55590;BME280;41452;42.780;23.116;2023-04-08T05:33:18;94486.59;;;3.25;99.45
55590;BME280;41452;42.780;23.116;2023-04-08T05:35:44;94492.97;;;3.22;99.26
55590;BME280;41452;42.780;23.116;2023-04-08T05:38:10;94447.63;;;3.03;98.27
55590;BME280;41452;42.780;23.116;2023-04-08T05:40:36;94459.88;;;3.10;97.47
55590;BME280;41452;42.780;23.116;2023-04-08T05:43:01;94485.56;;;3.04;99.41
55590;BME280;41452;42.780;23.116;2023-04-08T05:45:28;94490.03;;;3.11;98.94
55590;BME280;41452;42.780;23.116;2023-04-08T05:47:54;94478.66;;;3.12;99.68
55590;BME280;41452;42.780;23.116;2023-04-08T05:50:20;94490.66;;;3.13;100.00
55590;BME280;41452;42.780;23.116;2023-04-08T05:52:45;94487.50;;;3.17;99.84
55590;BME280;41452;42.780;23.116;2023-04-08T05:55:12;94485.81;;;3.24;100.00
55590;BME280;41452;42.780;23.116;2023-04-08T05:57:37;94482.06;;;3.27;99.44
55590;BME280;41452;42.780;23.116;2023-04-08T06:00:07;94483.13;;;3.33;99.03
55590;BME280;41452;42.780;23.116;2023-04-08T06:02:33;94482.31;;;3.32;99.12
55590;BME280;41452;42.780;23.116;2023-04-08T06:04:59;94441.91;;;3.08;99.40
55590;BME280;41452;42.780;23.116;2023-04-08T06:07:25;94483.19;;;3.39;99.23
55590;BME280;41452;42.780;23.116;2023-04-08T06:09:50;94476.22;;;3.40;98.26
55590;BME280;41452;42.780;23.116;2023-04-08T06:12:15;94472.44;;;3.42;99.21
55590;BME280;41452;42.780;23.116;2023-04-08T06:14:41;94471.28;;;3.45;99.63
55590;BME280;41452;42.780;23.116;2023-04-08T06:17:06;94476.09;;;3.48;99.34
55590;BME280;41452;42.780;23.116;2023-04-08T06:19:32;94461.44;;;3.40;98.70
55590;BME280;41452;42.780;23.116;2023-04-08T06:21:57;94476.91;;;3.49;99.31
55590;BME280;41452;42.780;23.116;2023-04-08T06:24:26;94479.72;;;3.32;99.05
55590;BME280;41452;42.780;23.116;2023-04-08T06:26:54;94475.94;;;3.35;100.00
55590;BME280;41452;42.780;23.116;2023-04-08T06:29:23;94477.28;;;3.46;99.97
55590;BME280;41452;42.780;23.116;2023-04-08T06:31:49;94459.84;;;3.24;99.94
55590;BME280;41452;42.780;23.116;2023-04-08T06:34:15;94437.28;;;3.25;98.94
55590;BME280;41452;42.780;23.116;2023-04-08T06:36:40;94445.06;;;3.25;95.70
55590;BME280;41452;42.780;23.116;2023-04-08T06:39:06;94470.66;;;3.28;96.38
55590;BME280;41452;42.780;23.116;2023-04-08T06:41:31;94492.19;;;3.58;97.18
55590;BME280;41452;42.780;23.116;2023-04-08T06:43:57;94486.53;;;3.70;94.39
55590;BME280;41452;42.780;23.116;2023-04-08T06:46:22;94496.00;;;3.77;95.19
55590;BME280;41452;42.780;23.116;2023-04-08T06:48:47;94463.78;;;3.57;95.95
55590;BME280;41452;42.780;23.116;2023-04-08T06:51:13;94450.28;;;3.61;95.55
55590;BME280;41452;42.780;23.116;2023-04-08T06:53:38;94490.69;;;3.86;93.90
55590;BME280;41452;42.780;23.116;2023-04-08T06:56:04;94493.41;;;3.77;95.08
55590;BME280;41452;42.780;23.116;2023-04-08T06:58:29;94490.91;;;3.91;94.72
55590;BME280;41452;42.780;23.116;2023-04-08T07:00:55;94497.81;;;3.98;94.23
55590;BME280;41452;42.780;23.116;2023-04-08T07:03:21;94490.03;;;3.84;95.47
55590;BME280;41452;42.780;23.116;2023-04-08T07:05:46;94490.97;;;3.97;94.26
55590;BME280;41452;42.780;23.116;2023-04-08T07:08:12;94493.28;;;4.07;94.95
55590;BME280;41452;42.780;23.116;2023-04-08T07:10:37;94488.94;;;4.14;94.57
55590;BME280;41452;42.780;23.116;2023-04-08T07:13:03;94480.97;;;3.94;96.83
55590;BME280;41452;42.780;23.116;2023-04-08T07:15:29;94505.59;;;4.20;96.44
55590;BME280;41452;42.780;23.116;2023-04-08T07:17:54;94506.69;;;4.32;96.21
55590;BME280;41452;42.780;23.116;2023-04-08T07:20:24;94491.03;;;4.26;95.46
55590;BME280;41452;42.780;23.116;2023-04-08T07:22:50;94514.81;;;4.23;95.35
55590;BME280;41452;42.780;23.116;2023-04-08T07:25:16;94513.06;;;4.30;95.44
55590;BME280;41452;42.780;23.116;2023-04-08T07:27:41;94505.16;;;4.38;96.12
55590;BME280;41452;42.780;23.116;2023-04-08T07:30:07;94483.84;;;4.28;96.07
55590;BME280;41452;42.780;23.116;2023-04-08T07:32:33;94493.38;;;4.42;97.17
55590;BME280;41452;42.780;23.116;2023-04-08T07:34:59;94510.69;;;4.56;95.86
55590;BME280;41452;42.780;23.116;2023-04-08T07:37:26;94489.84;;;4.50;95.94
55590;BME280;41452;42.780;23.116;2023-04-08T07:39:51;94508.38;;;4.68;97.33
55590;BME280;41452;42.780;23.116;2023-04-08T07:42:17;94519.06;;;4.80;95.75
55590;BME280;41452;42.780;23.116;2023-04-08T07:44:43;94515.47;;;4.81;95.00
55590;BME280;41452;42.780;23.116;2023-04-08T07:47:09;94493.13;;;4.65;96.59
55590;BME280;41452;42.780;23.116;2023-04-08T07:49:36;94527.38;;;4.97;94.54
55590;BME280;41452;42.780;23.116;2023-04-08T07:52:01;94518.34;;;4.93;94.45
55590;BME280;41452;42.780;23.116;2023-04-08T07:54:27;94523.44;;;5.08;93.58
55590;BME280;41452;42.780;23.116;2023-04-08T07:56:52;94528.06;;;5.12;93.79
55590;BME280;41452;42.780;23.116;2023-04-08T07:59:17;94531.16;;;5.23;93.87
55590;BME280;41452;42.780;23.116;2023-04-08T08:01:43;94533.97;;;5.28;92.44
55590;BME280;41452;42.780;23.116;2023-04-08T08:04:08;94541.19;;;5.32;92.90
55590;BME280;41452;42.780;23.116;2023-04-08T08:06:34;94540.03;;;5.42;93.28
55590;BME280;41452;42.780;23.116;2023-04-08T08:09:00;94546.09;;;5.49;91.82
55590;BME280;41452;42.780;23.116;2023-04-08T08:11:25;94550.31;;;5.50;93.08
55590;BME280;41452;42.780;23.116;2023-04-08T08:13:52;94529.19;;;5.31;92.11
55590;BME280;41452;42.780;23.116;2023-04-08T08:16:18;94544.69;;;5.46;92.20
55590;BME280;41452;42.780;23.116;2023-04-08T08:18:43;94537.88;;;5.52;91.89
55590;BME280;41452;42.780;23.116;2023-04-08T08:21:09;94534.31;;;5.60;93.61
55590;BME280;41452;42.780;23.116;2023-04-08T08:23:34;94528.34;;;5.72;92.36
55590;BME280;41452;42.780;23.116;2023-04-08T08:26:05;94529.41;;;5.85;91.03
55590;BME280;41452;42.780;23.116;2023-04-08T08:28:31;94504.94;;;5.79;89.86
55590;BME280;41452;42.780;23.116;2023-04-08T08:30:57;94525.25;;;5.97;91.78
55590;BME280;41452;42.780;23.116;2023-04-08T08:33:24;94508.22;;;6.08;91.52
55590;BME280;41452;42.780;23.116;2023-04-08T08:35:50;94533.91;;;6.04;89.96
55590;BME280;41452;42.780;23.116;2023-04-08T08:38:16;94525.88;;;6.13;90.68
55590;BME280;41452;42.780;23.116;2023-04-08T08:40:42;94530.91;;;6.34;92.44
55590;BME280;41452;42.780;23.116;2023-04-08T08:43:08;94518.69;;;6.35;87.49
55590;BME280;41452;42.780;23.116;2023-04-08T08:45:38;94535.38;;;6.47;84.78
55590;BME280;41452;42.780;23.116;2023-04-08T08:48:04;94525.91;;;6.33;88.97
55590;BME280;41452;42.780;23.116;2023-04-08T08:50:30;94515.69;;;6.31;88.62
55590;BME280;41452;42.780;23.116;2023-04-08T08:52:55;94529.75;;;6.63;88.76
55590;BME280;41452;42.780;23.116;2023-04-08T08:55:21;94533.16;;;6.84;89.12
55590;BME280;41452;42.780;23.116;2023-04-08T08:57:49;94529.94;;;6.89;86.28
55590;BME280;41452;42.780;23.116;2023-04-08T09:00:16;94524.31;;;6.92;87.78
55590;BME280;41452;42.780;23.116;2023-04-08T09:02:41;94531.50;;;7.03;87.99
55590;BME280;41452;42.780;23.116;2023-04-08T09:05:07;94542.16;;;7.21;87.13
55590;BME280;41452;42.780;23.116;2023-04-08T09:07:37;94529.34;;;6.93;86.02
55590;BME280;41452;42.780;23.116;2023-04-08T09:10:06;94505.81;;;7.00;87.33
55590;BME280;41452;42.780;23.116;2023-04-08T09:12:31;94531.84;;;7.33;84.30
55590;BME280;41452;42.780;23.116;2023-04-08T09:15:03;94542.34;;;7.20;85.31
55590;BME280;41452;42.780;23.116;2023-04-08T09:17:39;94531.91;;;7.27;85.76
55590;BME280;41452;42.780;23.116;2023-04-08T09:22:54;94531.25;;;7.38;85.87
55590;BME280;41452;42.780;23.116;2023-04-08T09:27:52;94528.94;;;7.61;85.72
55590;BME280;41452;42.780;23.116;2023-04-08T09:30:19;94535.81;;;7.63;83.11
55590;BME280;41452;42.780;23.116;2023-04-08T09:32:53;94532.22;;;7.57;86.35
55590;BME280;41452;42.780;23.116;2023-04-08T09:35:19;94522.94;;;7.61;84.25
55590;BME280;41452;42.780;23.116;2023-04-08T09:37:45;94530.56;;;7.63;84.66
55590;BME280;41452;42.780;23.116;2023-04-08T09:40:11;94523.25;;;7.78;86.69
55590;BME280;41452;42.780;23.116;2023-04-08T09:42:39;94518.16;;;7.96;85.47
55590;BME280;41452;42.780;23.116;2023-04-08T09:45:06;94512.59;;;8.18;85.27
55590;BME280;41452;42.780;23.116;2023-04-08T09:47:41;94509.91;;;7.99;83.73
55590;BME280;41452;42.780;23.116;2023-04-08T09:50:08;94515.72;;;8.33;82.46
55590;BME280;41452;42.780;23.116;2023-04-08T09:52:43;94495.16;;;8.37;83.86
55590;BME280;41452;42.780;23.116;2023-04-08T09:55:08;94508.13;;;8.25;80.00
55590;BME280;41452;42.780;23.116;2023-04-08T09:58:01;94511.75;;;8.56;83.33
55590;BME280;41452;42.780;23.116;2023-04-08T10:00:39;94466.72;;;8.47;79.30
55590;BME280;41452;42.780;23.116;2023-04-08T10:05:37;94471.72;;;8.99;80.07
55590;BME280;41452;42.780;23.116;2023-04-08T10:08:04;94498.72;;;9.18;81.50
55590;BME280;41452;42.780;23.116;2023-04-08T10:10:31;94480.09;;;9.08;80.42
55590;BME280;41452;42.780;23.116;2023-04-08T10:12:57;94495.44;;;9.23;78.12
55590;BME280;41452;42.780;23.116;2023-04-08T10:17:49;94490.56;;;9.26;77.43
55590;BME280;41452;42.780;23.116;2023-04-08T10:25:36;94455.84;;;9.12;76.65
55590;BME280;41452;42.780;23.116;2023-04-08T10:33:09;94474.78;;;9.33;75.70
55590;BME280;41452;42.780;23.116;2023-04-08T10:35:35;94474.03;;;9.44;79.40
55590;BME280;41452;42.780;23.116;2023-04-08T10:38:02;94457.00;;;9.35;77.22
55590;BME280;41452;42.780;23.116;2023-04-08T10:40:28;94416.91;;;9.16;78.25
55590;BME280;41452;42.780;23.116;2023-04-08T10:43:00;94450.00;;;9.47;79.51
55590;BME280;41452;42.780;23.116;2023-04-08T10:45:26;94448.41;;;9.46;76.90
55590;BME280;41452;42.780;23.116;2023-04-08T10:47:51;94427.56;;;9.51;78.19
55590;BME280;41452;42.780;23.116;2023-04-08T10:50:18;94440.09;;;9.49;76.07
55590;BME280;41452;42.780;23.116;2023-04-08T10:52:47;94440.81;;;9.57;75.34
55590;BME280;41452;42.780;23.116;2023-04-08T10:55:13;94448.63;;;9.45;74.97
55590;BME280;41452;42.780;23.116;2023-04-08T10:57:38;94437.78;;;9.41;74.62
55590;BME280;41452;42.780;23.116;2023-04-08T11:00:10;94439.50;;;9.66;72.25
55590;BME280;41452;42.780;23.116;2023-04-08T11:02:39;94419.88;;;9.38;74.49
55590;BME280;41452;42.780;23.116;2023-04-08T11:05:05;94433.31;;;9.11;74.55
55590;BME280;41452;42.780;23.116;2023-04-08T11:07:30;94425.38;;;9.48;74.96
55590;BME280;41452;42.780;23.116;2023-04-08T11:09:56;94425.19;;;9.80;73.91
55590;BME280;41452;42.780;23.116;2023-04-08T11:12:21;94433.09;;;9.92;69.73
55590;BME280;41452;42.780;23.116;2023-04-08T11:14:47;94420.09;;;9.97;72.21
55590;BME280;41452;42.780;23.116;2023-04-08T11:17:17;94420.38;;;10.07;72.43
55590;BME280;41452;42.780;23.116;2023-04-08T11:19:43;94412.06;;;10.22;71.28
55590;BME280;41452;42.780;23.116;2023-04-08T11:22:11;94407.31;;;10.43;71.11
55590;BME280;41452;42.780;23.116;2023-04-08T11:24:37;94414.03;;;10.39;71.49
55590;BME280;41452;42.780;23.116;2023-04-08T11:27:03;94406.66;;;10.05;70.52
55590;BME280;41452;42.780;23.116;2023-04-08T11:29:31;94408.00;;;9.96;70.84
55590;BME280;41452;42.780;23.116;2023-04-08T11:31:57;94411.44;;;9.97;71.37
55590;BME280;41452;42.780;23.116;2023-04-08T11:34:23;94412.75;;;9.87;69.35
55590;BME280;41452;42.780;23.116;2023-04-08T11:36:50;94406.84;;;9.92;71.06
55590;BME280;41452;42.780;23.116;2023-04-08T11:39:16;94405.03;;;9.93;72.18
55590;BME280;41452;42.780;23.116;2023-04-08T11:41:41;94410.84;;;9.95;71.53
55590;BME280;41452;42.780;23.116;2023-04-08T11:44:07;94405.38;;;9.84;72.24
55590;BME280;41452;42.780;23.116;2023-04-08T11:46:33;94420.88;;;9.86;70.83
55590;BME280;41452;42.780;23.116;2023-04-08T11:49:06;94415.59;;;9.74;70.89
55590;BME280;41452;42.780;23.116;2023-04-08T11:51:33;94418.00;;;9.76;70.83
55590;BME280;41452;42.780;23.116;2023-04-08T11:54:00;94415.31;;;9.64;71.25
55590;BME280;41452;42.780;23.116;2023-04-08T11:56:28;94419.09;;;9.68;72.06
55590;BME280;41452;42.780;23.116;2023-04-08T11:58:55;94427.41;;;9.65;71.11
55590;BME280;41452;42.780;23.116;2023-04-08T12:01:20;94428.50;;;9.57;73.82
55590;BME280;41452;42.780;23.116;2023-04-08T12:03:58;94432.06;;;9.63;78.84
55590;BME280;41452;42.780;23.116;2023-04-08T12:06:24;94435.78;;;9.55;74.93
55590;BME280;41452;42.780;23.116;2023-04-08T12:08:51;94427.47;;;8.91;81.20
55590;BME280;41452;42.780;23.116;2023-04-08T12:11:17;94423.75;;;8.99;79.77
55590;BME280;41452;42.780;23.116;2023-04-08T12:13:42;94422.56;;;9.13;82.79
55590;BME280;41452;42.780;23.116;2023-04-08T12:16:07;94428.78;;;9.19;90.16
55590;BME280;41452;42.780;23.116;2023-04-08T12:18:33;94425.06;;;9.26;91.04
55590;BME280;41452;42.780;23.116;2023-04-08T12:20:58;94422.59;;;9.31;90.28
55590;BME280;41452;42.780;23.116;2023-04-08T12:23:23;94415.38;;;9.45;95.19
55590;BME280;41452;42.780;23.116;2023-04-08T12:25:49;94402.59;;;9.19;86.92
55590;BME280;41452;42.780;23.116;2023-04-08T12:28:14;94414.03;;;9.36;88.94
55590;BME280;41452;42.780;23.116;2023-04-08T12:30:40;94378.50;;;9.10;93.22
55590;BME280;41452;42.780;23.116;2023-04-08T12:33:05;94412.47;;;9.35;94.81
55590;BME280;41452;42.780;23.116;2023-04-08T12:35:31;94413.31;;;9.29;93.73
55590;BME280;41452;42.780;23.116;2023-04-08T12:37:56;94413.31;;;9.29;92.10
55590;BME280;41452;42.780;23.116;2023-04-08T12:40:22;94410.94;;;9.27;90.67
55590;BME280;41452;42.780;23.116;2023-04-08T12:42:47;94389.56;;;9.12;88.97
55590;BME280;41452;42.780;23.116;2023-04-08T12:45:13;94403.81;;;9.16;93.62
55590;BME280;41452;42.780;23.116;2023-04-08T12:47:38;94400.53;;;9.21;89.86
55590;BME280;41452;42.780;23.116;2023-04-08T12:50:04;94398.91;;;9.38;87.87
55590;BME280;41452;42.780;23.116;2023-04-08T12:52:29;94385.34;;;9.41;92.56
55590;BME280;41452;42.780;23.116;2023-04-08T12:54:54;94401.34;;;9.51;86.36
55590;BME280;41452;42.780;23.116;2023-04-08T12:57:20;94400.38;;;9.64;86.25
55590;BME280;41452;42.780;23.116;2023-04-08T12:59:45;94403.47;;;9.73;89.43
55590;BME280;41452;42.780;23.116;2023-04-08T13:02:11;94393.06;;;9.55;87.90
55590;BME280;41452;42.780;23.116;2023-04-08T13:04:37;94402.91;;;9.41;85.91
55590;BME280;41452;42.780;23.116;2023-04-08T13:07:02;94412.28;;;9.48;87.82
55590;BME280;41452;42.780;23.116;2023-04-08T13:09:29;94403.41;;;9.49;88.83
55590;BME280;41452;42.780;23.116;2023-04-08T13:11:54;94398.94;;;9.50;90.30
55590;BME280;41452;42.780;23.116;2023-04-08T13:14:20;94398.28;;;9.55;87.50
55590;BME280;41452;42.780;23.116;2023-04-08T13:16:46;94393.81;;;9.43;87.29
55590;BME280;41452;42.780;23.116;2023-04-08T13:19:12;94389.63;;;9.54;88.23